Tiempo atmosférico en la estación meteorológica de San Bartolome Tirajana, El Matorral, Las Palmas (41 m.)



Fecha
DESCASC
Temp. máxima en grados centígrados (hora)
DESCASC
Temp. mínima en grados centígrados (hora)
DESCASC
Temp. media en grados centígrados
DESCASC
Racha de viento máxima en m/sg (hora)
DESCASC
Velocidad máxima media en intervalos de 10 minutos(hora)
DESCASC
Precipitaciones diarias en mm
DESCASC
Precipitaciones de 00:00 a 06:00 en mm
DESCASC
Precipitaciones de 06:00 a 12:00 en mm
DESCASC
Precipitaciones de 12:00 a 18:00 en mm
DESCASC
Precipitaciones de 18:00 a 24:00 en mm
DESCASC
27-10-2020 25.7 (13:50) 20 (06:30) 22.9 14.17 (13:20) 8.61 (14:30) 0 0 0 0 0
26-10-2020 24.9 (14:10) 19.8 (06:30) 22.3 16.67 (10:40) 10.56 (11:40) 0 0 0 0 0
25-10-2020 25 (13:20) 19.9 (06:40) 22.4 15.83 (11:20) 9.72 (10:20) 0 0 0 0 0
24-10-2020 24.6 (15:10) 19.6 (00:00) 22.1 14.72 (11:40) 8.61 (12:40) 0 0 0 0 0
23-10-2020 24.9 (14:10) 19.1 (00:00) 22 12.78 (15:50) 7.5 (15:50) 0 0 0 0 0
22-10-2020 25.8 (13:20) 18 (00:00) 21.9 12.22 (16:10) 7.5 (17:30) 0 0 0 0 0
21-10-2020 26.7 (13:30) 20.2 (00:00) 23.5 7.22 (14:40) 4.44 (13:40) 0 0 0 0 0
20-10-2020 29.5 (13:10) 21.9 (00:00) 25.7 18.61 (12:30) 11.94 (13:40) 0 0 0 0 0
19-10-2020 26.2 (15:00) 17.3 (00:00) 21.8 11.67 (14:20) 7.78 (12:20) 0 0 0 0 0
18-10-2020 23.6 (13:50) 18.2 (00:00) 20.9 6.94 (19:40) 4.72 (19:40) 0 0 0 0 0
17-10-2020 24.4 (11:50) 19.9 (00:00) 22.1 7.5 (12:00) 4.72 (12:00) 0 0 0 0 0
16-10-2020 25.2 (15:50) 20.7 (00:00) 23 10.28 (12:50) 6.39 (16:10) 0 0 0 0 0
15-10-2020 25.8 (13:40) 20.1 (00:00) 22.9 11.39 (10:50) 6.94 (10:50) 0 0 0 0 0
14-10-2020 26.5 (16:10) 20.5 (00:00) 23.5 11.94 (23:40) 6.67 (20:30) 0 0 0 0 0
13-10-2020 30.9 (12:00) 22.3 (00:00) 26.6 11.39 (20:30) 7.22 (20:30) 0 0 0 0 0
12-10-2020 33.3 (14:00) 21.9 (00:00) 27.6 13.33 (02:40) 8.33 (02:50) 0 0 0 0 0
11-10-2020 27.8 (15:50) 21.7 (00:00) 24.8 15 (17:20) 9.17 (05:50) 0 0 0 0 0
10-10-2020 26.9 (14:40) 21.3 (00:00) 24.1 15 (19:30) 9.17 (19:10) 0 0 0 0 0
09-10-2020 29.3 (16:20) 22.1 (00:00) 25.7 14.72 (10:40) 8.61 (09:40) 0 0 0 0 0
08-10-2020 30 (16:50) 20.9 (00:00) 25.4 10.56 (11:10) 6.39 (08:40) 0 0 0 0 0
07-10-2020 27.6 (14:10) 19.9 (00:00) 23.8 9.44 (00:20) 5.56 (00:30) 0 0 0 0 0
06-10-2020 24.7 (13:00) 20.9 (00:00) 22.8 12.22 (08:30) 7.22 (08:30) 0 0 0 0 0
05-10-2020 26.5 (14:20) 21 (00:00) 23.8 13.61 (15:50) 8.89 (15:00) 0 0 0 0 0
04-10-2020 26 (15:20) 20.8 (00:00) 23.4 16.11 (19:00) 10 (18:40) 3.2 0 2.4 0.8 0
03-10-2020 28.6 (15:10) 21.5 (00:00) 25.1 16.11 (01:50) 10.56 (12:10) 0 0 0 0 0
02-10-2020 28.3 (15:40) 21 (00:00) 24.6 17.22 (17:50) 10.83 (17:20) 0 0 0 0 0
01-10-2020 27.5 (14:10) 21.1 (00:00) 24.3 16.39 (17:50) 10.56 (17:50) 0 0 0 0 0
30-09-2020 27.4 (14:30) 21 (00:00) 24.2 13.61 (17:50) 8.89 (16:40) 0 0 0 0 0

Gráficas

Temp. máximas Temp. mínimas Temp. medias Precipitaciones Rachas de viento máximas Velocidades máximas media en intervalos de 10 minutos

Datos horarios

Fecha y hora oficial Temperatura (ºC) Velocidad del viento (km/h) Dirección del viento Racha (km/h) Dirección de racha Precipitación (mm) Presión (hPa) Tendencia (hPa) Humedad (%)
2020-10-29 23:00:00 -- -- -- -- -- -- -- -- --
2020-10-29 22:00:00 19.9 7 Norte 17 Norte 0 -- -- 76
2020-10-29 21:00:00 20.7 10 Nordeste 24 Norte 0 -- -- 74
2020-10-29 20:00:00 21 14 Nordeste 27 Norte 0 -- -- 74
2020-10-29 19:00:00 20.1 4 Sudeste 17 Sudeste 0 -- -- 74
2020-10-29 18:00:00 22.7 9 Sur 22 Sudoeste 0 -- -- 65
2020-10-29 17:00:00 23.7 13 Sudoeste 23 Sudoeste 0 -- -- 64
2020-10-29 16:00:00 24.6 13 Sudoeste 29 Sur 0 -- -- 60
2020-10-29 15:00:00 25.8 10 Sur 24 Sudoeste 0 -- -- 56
2020-10-29 14:00:00 24.1 5 Sur 35 Nordeste 0 -- -- 59
2020-10-29 13:00:00 25.4 21 Nordeste 41 Nordeste 0 -- -- 55
2020-10-29 12:00:00 25.2 21 Nordeste 41 Nordeste 0 -- -- 55
2020-10-29 11:00:00 24 25 Nordeste 44 Nordeste 0 -- -- 57
2020-10-29 10:00:00 23.9 18 Nordeste 33 Nordeste 0 -- -- 59
2020-10-29 09:00:00 22.4 21 Norte 35 Norte 0 -- -- 59
2020-10-29 08:00:00 20.4 10 Norte 24 Norte 0 -- -- 67
2020-10-29 07:00:00 19.9 16 Norte 24 Nordeste 0 -- -- 73
2020-10-29 06:00:00 19.6 13 Norte 26 Nordeste 0 -- -- 71
2020-10-29 05:00:00 20.1 14 Norte 29 Nordeste 0 -- -- 71
2020-10-29 04:00:00 20.3 21 Norte 33 Norte 0 -- -- 69
2020-10-29 03:00:00 20.1 14 Nordeste 31 Nordeste 0 -- -- 69
2020-10-29 02:00:00 20.4 18 Norte 38 Norte 0 -- -- 65
2020-10-29 01:00:00 20.3 18 Norte 34 Norte 0 -- -- 66
2020-10-29 00:00:00 20.6 17 Norte 36 Norte 0 -- -- 66
2020-10-28 23:00:00 20.7 18 Nordeste 34 Norte 0 -- -- 66
2020-10-28 22:00:00 20.5 21 Norte 38 Norte 0 -- -- 68
2020-10-28 21:00:00 20.4 22 Nordeste 36 Nordeste 0 -- -- 72
2020-10-28 20:00:00 21.1 19 Nordeste 37 Nordeste 0 -- -- 61
2020-10-28 19:00:00 21.2 21 Nordeste 44 Nordeste 0 -- -- 61
2020-10-28 18:00:00 21.8 24 Nordeste 46 Nordeste 0 -- -- 57
2020-10-28 17:00:00 22.9 28 Nordeste 47 Norte 0 -- -- 57
2020-10-28 16:00:00 24.1 21 Nordeste 48 Nordeste 0 -- -- 55
2020-10-28 15:00:00 24 24 Nordeste 44 Nordeste 0 -- -- 54
2020-10-28 14:00:00 23.8 24 Nordeste 40 Norte 0 -- -- 53
2020-10-28 13:00:00 23 25 Nordeste 46 Norte 0 -- -- 56
2020-10-28 12:00:00 23.8 31 Nordeste 46 Nordeste -- -- -- 56
2020-10-28 11:00:00 22.3 21 Nordeste 40 Nordeste 0 -- -- 60
2020-10-28 10:00:00 21.6 22 Norte 37 Norte 0 -- -- 62
2020-10-28 09:00:00 21 18 Norte 30 Norte 0 -- -- 66
2020-10-28 08:00:00 21.2 20 Norte 30 Nordeste 0 -- -- 57
2020-10-28 07:00:00 20.1 15 Nordeste 32 Norte 0 -- -- 60
2020-10-28 06:00:00 20.4 19 Norte 33 Norte 0 -- -- 62
2020-10-28 05:00:00 20.4 22 Norte 37 Nordeste 0 -- -- 61
2020-10-28 04:00:00 20.3 19 Nordeste 32 Nordeste 0 -- -- 62
2020-10-28 03:00:00 20.6 18 Nordeste 32 Nordeste 0 -- -- 62
2020-10-28 02:00:00 20.6 21 Nordeste 35 Nordeste 0 -- -- 64
2020-10-28 01:00:00 20.7 16 Nordeste 33 Nordeste 0 -- -- 63
2020-10-28 00:00:00 20.8 16 Nordeste 34 Nordeste 0 -- -- 65
2020-10-27 23:00:00 20.8 18 Nordeste 37 Nordeste 0 -- -- 65
2020-10-27 22:00:00 20.9 20 Nordeste 33 Nordeste 0 -- -- 66
2020-10-27 21:00:00 20.9 18 Nordeste 35 Nordeste 0 -- -- 69
2020-10-27 20:00:00 21.1 19 Nordeste 35 Nordeste 0 -- -- 72
2020-10-27 19:00:00 21.1 21 Nordeste 44 Norte 0 -- -- 71
2020-10-27 18:00:00 21.6 26 Nordeste 50 Nordeste 0 -- -- 68
2020-10-27 17:00:00 22.8 26 Nordeste 49 Nordeste 0 -- -- 62
2020-10-27 16:00:00 23.4 26 Nordeste 45 Nordeste 0 -- -- 63
2020-10-27 15:00:00 23.5 28 Nordeste 46 Nordeste 0 -- -- 66
2020-10-27 14:00:00 25.1 28 Nordeste 51 Norte 0 -- -- 55
2020-10-27 13:00:00 25.3 27 Nordeste 49 Nordeste 0 -- -- 56
2020-10-27 12:00:00 24.5 29 Nordeste 48 Nordeste 0 -- -- 59
2020-10-27 11:00:00 23.9 26 Nordeste 47 Norte 0 -- -- 64
2020-10-27 10:00:00 23.2 23 Nordeste 39 Nordeste 0 -- -- 69
2020-10-27 09:00:00 22.5 18 Nordeste 32 Nordeste 0 -- -- 64
2020-10-27 08:00:00 21.1 15 Nordeste 33 Norte 0 -- -- 65
2020-10-27 07:00:00 20.3 17 Nordeste 33 Nordeste 0 -- -- 69
2020-10-27 06:00:00 20.2 16 Nordeste 31 Nordeste 0 -- -- 78
2020-10-27 05:00:00 20.7 16 Nordeste 30 Norte 0 -- -- 76
2020-10-27 04:00:00 20.2 16 Nordeste 29 Norte 0 -- -- 76
2020-10-27 03:00:00 20.3 15 Nordeste 28 Nordeste 0 -- -- 77
2020-10-27 02:00:00 20.5 16 Nordeste 33 Nordeste 0 -- -- 75
2020-10-27 01:00:00 20.5 14 Nordeste 29 Norte 0 -- -- 73
2020-10-27 00:00:00 21 19 Norte 37 Norte 0 -- -- 70
2020-10-26 23:00:00 21 18 Nordeste 34 Norte 0 -- -- 72
2020-10-26 22:00:00 21.2 19 Norte 37 Nordeste 0 -- -- 68
2020-10-26 21:00:00 20.9 22 Nordeste 38 Norte 0 -- -- 72
2020-10-26 20:00:00 21.2 21 Nordeste 45 Norte 0 -- -- 67
2020-10-26 19:00:00 21.6 23 Nordeste 48 Norte 0 -- -- 63
2020-10-26 18:00:00 22 27 Nordeste 50 Nordeste 0 -- -- 66
2020-10-26 17:00:00 23.2 30 Nordeste 53 Norte 0 -- -- 60
2020-10-26 16:00:00 23.9 28 Nordeste 53 Nordeste 0 -- -- 58
2020-10-26 15:00:00 24.5 28 Nordeste 51 Norte 0 -- -- 58
2020-10-26 14:00:00 24.6 30 Nordeste 53 Nordeste 0 -- -- 55
2020-10-26 13:00:00 24.7 33 Nordeste 54 Nordeste 0 -- -- 54
2020-10-26 12:00:00 24.2 37 Nordeste 58 Norte 0 -- -- 54
2020-10-26 11:00:00 23.6 35 Nordeste 60 Norte 0 -- -- 59
2020-10-26 10:00:00 22.6 35 Nordeste 59 Nordeste 0 -- -- 61
2020-10-26 09:00:00 21.5 32 Norte 51 Nordeste 0 -- -- 64
2020-10-26 08:00:00 20.5 28 Norte 49 Norte 0 -- -- 66
2020-10-26 07:00:00 19.8 23 Nordeste 44 Nordeste 0 -- -- 72
2020-10-26 06:00:00 19.9 24 Nordeste 46 Nordeste 0 -- -- 72
2020-10-26 05:00:00 20 24 Nordeste 43 Nordeste 0 -- -- 71
2020-10-26 04:00:00 20.3 26 Norte 48 Nordeste 0 -- -- 70
2020-10-26 03:00:00 20.3 24 Nordeste 44 Nordeste 0 -- -- 69
2020-10-26 02:00:00 20.2 23 Nordeste 41 Nordeste 0 -- -- 69
2020-10-26 01:00:00 20.2 24 Nordeste 44 Nordeste 0 -- -- 69
2020-10-26 00:00:00 20.3 22 Nordeste 38 Norte 0 -- -- 71
2020-10-25 23:00:00 20.4 19 Nordeste 40 Nordeste 0 -- -- 70
2020-10-25 22:00:00 20.6 22 Nordeste 45 Nordeste 0 -- -- 69
2020-10-25 21:00:00 20.7 24 Nordeste 49 Nordeste 0 -- -- 69
2020-10-25 20:00:00 21 29 Nordeste 50 Nordeste 0 -- -- 68
2020-10-25 19:00:00 21 24 Nordeste 48 Nordeste 0 -- -- 67
2020-10-25 18:00:00 21.4 28 Nordeste 54 Nordeste 0 -- -- 66
2020-10-25 17:00:00 22.5 29 Nordeste 52 Nordeste 0 -- -- 61
2020-10-25 16:00:00 23.8 26 Nordeste 53 Nordeste 0 -- -- 59
2020-10-25 15:00:00 23.2 28 Nordeste 50 Nordeste 0 -- -- 59
2020-10-25 14:00:00 23.7 33 Nordeste 55 Nordeste 0 -- -- 59
2020-10-25 13:00:00 24.7 27 Nordeste 57 Norte 0 -- -- 56
2020-10-25 12:00:00 24.6 32 Nordeste 57 Nordeste 0 -- -- 55
2020-10-25 11:00:00 23.8 32 Nordeste 55 Nordeste 0 -- -- 55
2020-10-25 10:00:00 22.9 31 Nordeste 50 Nordeste 0 -- -- 60
2020-10-25 09:00:00 21.6 31 Nordeste 45 Nordeste 0 -- -- 63
2020-10-25 08:00:00 20.6 23 Norte 36 Norte 0 -- -- 67
2020-10-25 07:00:00 20 21 Nordeste 37 Norte 0 -- -- 69
2020-10-25 06:00:00 20 22 Norte 40 Nordeste 0 -- -- 69
2020-10-25 05:00:00 20.1 21 Nordeste 34 Norte 0 -- -- 69
2020-10-25 04:00:00 20.1 21 Nordeste 37 Nordeste 0 -- -- 68
2020-10-25 03:00:00 20.1 22 Nordeste 39 Nordeste 0 -- -- 69
2020-10-25 02:00:00 20.3 24 Nordeste 45 Nordeste 0 -- -- 69
2020-10-25 01:00:00 20.6 28 Nordeste 43 Nordeste 0 -- -- 68
2020-10-25 00:00:00 20.6 19 Nordeste 43 Norte 0 -- -- 70
2020-10-24 23:00:00 20.9 28 Nordeste 48 Nordeste 0 -- -- 69
2020-10-24 22:00:00 21 26 Nordeste 43 Norte 0 -- -- 68
2020-10-24 21:00:00 21.3 19 Nordeste 38 Norte 0 -- -- 70
2020-10-24 20:00:00 21.4 18 Nordeste 38 Nordeste 0 -- -- 64
2020-10-24 19:00:00 21.8 24 Nordeste 38 Nordeste 0 -- -- 64
2020-10-24 18:00:00 23.3 20 Nordeste 41 Nordeste 0 -- -- 59
2020-10-24 17:00:00 23.9 23 Nordeste 44 Nordeste 0 -- -- 55
2020-10-24 16:00:00 23.7 24 Nordeste 49 Nordeste 0 -- -- 55
2020-10-24 15:00:00 24.2 27 Nordeste 47 Nordeste 0 -- -- 55
2020-10-24 14:00:00 23.1 27 Nordeste 44 Norte 0 -- -- 59
2020-10-24 13:00:00 24 30 Nordeste 49 Nordeste 0 -- -- 53
2020-10-24 12:00:00 23.1 29 Nordeste 53 Nordeste 0 -- -- 55
2020-10-24 11:00:00 22.3 28 Nordeste 49 Nordeste 0 -- -- 58
2020-10-24 10:00:00 21.5 27 Norte 50 Norte 0 -- -- 61
2020-10-24 09:00:00 20.4 19 Norte 35 Norte 0 -- -- 63
2020-10-24 08:00:00 20.2 23 Norte 41 Norte 0 -- -- 64
2020-10-24 07:00:00 20.1 22 Nordeste 44 Norte 0 -- -- 65
2020-10-24 06:00:00 20.1 22 Norte 39 Norte 0 -- -- 64
2020-10-24 05:00:00 19.9 22 Norte 35 Norte 0 -- -- 65
2020-10-24 04:00:00 19.7 15 Nordeste 35 Nordeste 0 -- -- 66
2020-10-24 03:00:00 19.9 20 Norte 31 Norte 0 -- -- 67
2020-10-24 02:00:00 19.9 16 Norte 28 Norte 0 -- -- 67
2020-10-24 01:00:00 20.3 17 Nordeste 35 Nordeste 0 -- -- 64
2020-10-24 00:00:00 20.4 17 Nordeste 35 Nordeste 0 -- -- 66
2020-10-23 23:00:00 20.6 18 Nordeste 34 Nordeste 0 -- -- 67
2020-10-23 22:00:00 20.6 16 Nordeste 36 Norte 0 -- -- 66
2020-10-23 21:00:00 20.7 20 Norte 35 Norte 0 -- -- 65
2020-10-23 20:00:00 20.9 19 Nordeste 40 Nordeste 0 -- -- 61
2020-10-23 19:00:00 22 20 Nordeste 37 Nordeste 0 -- -- 58
2020-10-23 18:00:00 23 23 Nordeste 39 Nordeste 0 -- -- 57
2020-10-23 17:00:00 23.7 21 Nordeste 42 Nordeste 0 -- -- 55
2020-10-23 16:00:00 24 25 Nordeste 46 Norte 0 -- -- 57
2020-10-23 15:00:00 24 24 Nordeste 42 Nordeste 0 -- -- 56
2020-10-23 14:00:00 24.7 21 Nordeste 40 Nordeste 0 -- -- 49
2020-10-23 13:00:00 24.3 21 Nordeste 39 Nordeste 0 -- -- 53
2020-10-23 12:00:00 23.6 20 Nordeste 37 Nordeste 0 -- -- 57
2020-10-23 11:00:00 22.7 20 Norte 32 Nordeste 0 -- -- 57
2020-10-23 10:00:00 21.8 18 Norte 28 Norte 0 -- -- 59
2020-10-23 09:00:00 20.1 16 Norte 28 Norte 0 -- -- 61
2020-10-23 08:00:00 19.6 20 Norte 29 Nordeste 0 -- -- 64
2020-10-23 07:00:00 19.5 17 Norte 26 Norte 0 -- -- 66
2020-10-23 06:00:00 19.6 17 Norte 26 Norte 0 -- -- 66
2020-10-23 05:00:00 19.4 14 Norte 25 Norte 0 -- -- 67
2020-10-23 04:00:00 19.5 14 Norte 24 Norte 0 -- -- 67
2020-10-23 03:00:00 19.7 14 Norte 22 Norte 0 -- -- 65
2020-10-23 02:00:00 19.8 12 Norte 22 Norte 0 -- -- 66
2020-10-23 01:00:00 20.1 15 Norte 22 Norte 0 -- -- 65
2020-10-23 00:00:00 20.4 14 Norte 24 Norte 0 -- -- 66
2020-10-22 23:00:00 20.1 12 Norte 29 Norte 0 -- -- 65
2020-10-22 22:00:00 21.2 17 Norte 33 Nordeste 0 -- -- 61
2020-10-22 21:00:00 21.4 19 Nordeste 37 Nordeste 0 -- -- 61
2020-10-22 20:00:00 21.6 16 Nordeste 37 Norte 0 -- -- 61
2020-10-22 19:00:00 22.1 24 Norte 42 Nordeste 0 -- -- 58
2020-10-22 18:00:00 23 23 Nordeste 44 Norte 0 -- -- 53
2020-10-22 17:00:00 23.8 24 Nordeste 44 Nordeste 0 -- -- 58
2020-10-22 16:00:00 24.8 22 Nordeste 41 Norte 0 -- -- 55
2020-10-22 15:00:00 25 25 Norte 42 Norte 0 -- -- 49
2020-10-22 14:00:00 24.7 20 Nordeste 39 Nordeste 0 -- -- 50
2020-10-22 13:00:00 25.4 18 Nordeste 37 Nordeste 0 -- -- 51
2020-10-22 12:00:00 24.2 18 Nordeste 33 Nordeste 0 -- -- 57
2020-10-22 11:00:00 23 16 Norte 31 Norte 0 -- -- 61
2020-10-22 10:00:00 22.1 6 Este 14 Nordeste 0 -- -- 66
2020-10-22 09:00:00 19.6 4 Norte 12 Norte 0 -- -- 78
2020-10-22 08:00:00 18.4 5 Norte 12 Norte 0 -- -- 83
2020-10-22 07:00:00 18.6 6 Norte 14 Norte 0 -- -- 86
2020-10-22 06:00:00 18.7 6 Nordeste 10 Norte 0 -- -- 82
2020-10-22 05:00:00 19.3 7 Norte 10 Norte 0 -- -- 85
2020-10-22 04:00:00 18.1 4 Noroeste 12 Norte 0 -- -- 86
2020-10-22 03:00:00 19 10 Norte 16 Norte 0 -- -- 82
2020-10-22 02:00:00 19.8 7 Norte 12 Nordeste 0 -- -- 85
2020-10-22 01:00:00 20 6 Nordeste 13 Nordeste 0 -- -- 86
2020-10-22 00:00:00 20.2 3 Norte 8 Norte 0 -- -- 87
2020-10-21 23:00:00 20.2 5 Norte 10 Norte 0 -- -- 88
2020-10-21 22:00:00 20.5 8 Nordeste 14 Nordeste 0 -- -- 88
2020-10-21 21:00:00 20.7 6 Nordeste 10 Norte 0 -- -- 86
2020-10-21 20:00:00 21.7 6 Este 13 Este 0 -- -- 75
2020-10-21 19:00:00 22.4 0 Calma 18 Nordeste 0 -- -- 70
2020-10-21 18:00:00 22.6 11 Nordeste 20 Norte 0 -- -- 71
2020-10-21 17:00:00 22.9 10 Nordeste 23 Nordeste 0 -- -- 73
2020-10-21 16:00:00 24.4 13 Nordeste 25 Nordeste 0 -- -- 64
2020-10-21 15:00:00 24.3 16 Nordeste 26 Nordeste 0 -- -- 69
2020-10-21 14:00:00 25 16 Este 26 Nordeste 0 -- -- 67
2020-10-21 13:00:00 25 16 Este 24 Este 0 -- -- 67
2020-10-21 12:00:00 24.7 16 Este 23 Este 0 -- -- 69
2020-10-21 11:00:00 25.5 7 Sur 12 Sur 0 -- -- 63
2020-10-21 10:00:00 23.8 5 Nordeste 10 Este 0 -- -- 70
2020-10-21 09:00:00 21.1 5 Noroeste 6 Noroeste 0 -- -- 78
2020-10-21 08:00:00 21.3 5 Nordeste 13 Norte 0 -- -- 76
2020-10-21 07:00:00 21.4 3 Norte 7 Este 0 -- -- 77
2020-10-21 06:00:00 21.8 0 Calma 13 Nordeste 0 -- -- 76
2020-10-21 05:00:00 21.9 6 Este 12 Este 0 -- -- 77
2020-10-21 04:00:00 21.7 9 Este 13 Este 0 -- -- 80
2020-10-21 03:00:00 21.9 5 Sudeste 12 Sudeste 0 -- -- 84
2020-10-21 02:00:00 22 7 Sudeste 10 Sudeste 0 -- -- 85
2020-10-21 01:00:00 22.7 7 Sudoeste 13 Oeste 0 -- -- 84
2020-10-21 00:00:00 22.6 6 Oeste 10 Sudoeste 0 -- -- 85
2020-10-20 23:00:00 22.8 5 Sudeste 13 Sudeste 0 -- -- 85
2020-10-20 22:00:00 22.7 10 Este 17 Este 0 -- -- 86
2020-10-20 21:00:00 22.8 10 Este 16 Este 0 -- -- 86
2020-10-20 20:00:00 23.5 10 Nordeste 22 Nordeste 0 -- -- 81
2020-10-20 19:00:00 24.8 18 Sudoeste 38 Sudoeste 0 -- -- 83
2020-10-20 18:00:00 26.5 24 Sudoeste 39 Sudoeste 0 -- -- 76
2020-10-20 17:00:00 26.2 28 Sudoeste 50 Sudoeste 0 -- -- 74
2020-10-20 16:00:00 27.8 32 Sudoeste 50 Sudoeste 0 -- -- 68
2020-10-20 15:00:00 28.7 29 Sudoeste 56 Sudoeste 0 -- -- 63
2020-10-20 14:00:00 28.8 36 Sudoeste 64 Sudoeste 0 -- -- 53
2020-10-20 13:00:00 28.7 33 Sudoeste 67 Sudoeste 0 -- -- 57
2020-10-20 12:00:00 25.8 33 Sudoeste 50 Sudoeste 0 -- -- 68
2020-10-20 11:00:00 25.9 32 Sudoeste 51 Sudoeste 0 -- -- 61
2020-10-20 10:00:00 25.5 22 Sudoeste 43 Sudoeste 0 -- -- 61
2020-10-20 09:00:00 26.2 28 Sudoeste 48 Sudoeste 0 -- -- 54
2020-10-20 08:00:00 26.2 31 Sudoeste 49 Oeste 0 -- -- 52
2020-10-20 07:00:00 26 23 Sudoeste 40 Oeste 0 -- -- 54
2020-10-20 06:00:00 23.2 21 Sudoeste 32 Sudoeste 0 -- -- 76
2020-10-20 05:00:00 23 21 Sudoeste 39 Sudoeste 0 -- -- 76
2020-10-20 04:00:00 22.1 25 Sudoeste 34 Sudoeste 0 -- -- 88
2020-10-20 03:00:00 21.9 23 Sudoeste 36 Sur 0 -- -- 93
2020-10-20 02:00:00 22.1 23 Sudoeste 35 Sudoeste 0 -- -- 93
2020-10-20 01:00:00 22 18 Sudoeste 28 Sudoeste 0 -- -- 93
2020-10-20 00:00:00 22.2 15 Sudoeste 23 Sudoeste 0 -- -- 91
2020-10-19 23:00:00 22.3 12 Sudoeste 17 Sudoeste 0 -- -- 88
2020-10-19 22:00:00 22.7 14 Sudoeste 25 Sudoeste 0 -- -- 87
2020-10-19 21:00:00 22.7 15 Sudoeste 32 Sudoeste 0 -- -- 89
2020-10-19 20:00:00 22.8 22 Sudoeste 38 Sudoeste 0 -- -- 87
2020-10-19 19:00:00 23.5 24 Sudoeste 37 Sudoeste 0 -- -- 85
2020-10-19 18:00:00 24.4 26 Sudoeste 40 Sudoeste 0 -- -- 80
2020-10-19 17:00:00 25.3 22 Sudoeste 36 Sudoeste 0 -- -- 77
2020-10-19 16:00:00 25.3 25 Sudoeste 38 Sudoeste 0 -- -- 76
2020-10-19 15:00:00 26.2 22 Sudoeste 42 Sudoeste 0 -- -- 74
2020-10-19 14:00:00 25.7 25 Sudoeste 37 Sudoeste 0 -- -- 73
2020-10-19 13:00:00 25.5 23 Sur 40 Sudoeste 0 -- -- 74
2020-10-19 12:00:00 25.3 24 Sudoeste 38 Sudoeste 0 -- -- 74
2020-10-19 11:00:00 24.7 23 Sudoeste 32 Sudoeste 0 -- -- 70
2020-10-19 10:00:00 23.8 15 Sudoeste 25 Sudoeste 0 -- -- 63
2020-10-19 09:00:00 21.4 9 Sudoeste 30 Sudoeste 0 -- -- 74
2020-10-19 08:00:00 20.6 20 Sudoeste 30 Sudoeste 0 -- -- 86
2020-10-19 07:00:00 19.7 17 Sur 26 Sudoeste 0 -- -- 91
2020-10-19 06:00:00 17.5 4 Sudoeste 6 Sudoeste 0 -- -- 90
2020-10-19 05:00:00 18 5 Noroeste 9 Oeste 0 -- -- 89
2020-10-19 04:00:00 18.7 8 Sudoeste 14 Sudoeste 0 -- -- 89
2020-10-19 03:00:00 19.8 11 Sudoeste 18 Sudoeste 0 -- -- 89
2020-10-19 02:00:00 19.7 13 Sudoeste 18 Sudoeste 0 -- -- 89
2020-10-19 01:00:00 19.3 8 Sudoeste 12 Sudoeste 0 -- -- 87
2020-10-19 00:00:00 20 8 Sudoeste 18 Sudoeste 0 -- -- 85
2020-10-18 23:00:00 20.2 10 Sudoeste 23 Sudoeste 0 -- -- 85
2020-10-18 22:00:00 20.4 14 Sudoeste 23 Sur 0 -- -- 84
2020-10-18 21:00:00 20.4 14 Sudoeste 23 Sur 0 -- -- 83
2020-10-18 20:00:00 20.7 16 Sudoeste 25 Sur 0 -- -- 81
2020-10-18 19:00:00 21.1 15 Sudoeste 22 Sur 0 -- -- 79
2020-10-18 18:00:00 21.9 14 Sur 21 Sur 0 -- -- 76
2020-10-18 17:00:00 22.6 15 Sur 22 Sur 0 -- -- 73
2020-10-18 16:00:00 22.8 13 Sur 19 Sur 0 -- -- 72
2020-10-18 15:00:00 22.9 13 Sur 19 Sur 0 -- -- 73
2020-10-18 14:00:00 23.2 14 Sur 19 Sur 0 -- -- 70
2020-10-18 13:00:00 22.5 10 Sur 20 Sudeste 0 -- -- 71
2020-10-18 12:00:00 23.2 10 Sudeste 19 Sudeste 0 -- -- 69
2020-10-18 11:00:00 21.3 7 Sur 11 Sur 0 -- -- 78
2020-10-18 10:00:00 20.6 6 Sur 11 Sur 0 -- -- 83
2020-10-18 09:00:00 19.8 2 Sudoeste 7 Noroeste 0 -- -- 83
2020-10-18 08:00:00 18.6 5 Noroeste 6 Noroeste 0 -- -- 85
2020-10-18 07:00:00 18.9 5 Noroeste 8 Noroeste 0 -- -- 83
2020-10-18 06:00:00 18.2 5 Norte 8 Noroeste 0 -- -- 84
2020-10-18 05:00:00 18.4 2 Norte 6 Norte 0 -- -- 82
2020-10-18 04:00:00 19.1 5 Norte 8 Norte 0 -- -- 79
2020-10-18 03:00:00 19.3 5 Noroeste 7 Noroeste 0 -- -- 79
2020-10-18 02:00:00 19.7 5 Norte 8 Noroeste 0 -- -- 78
2020-10-18 01:00:00 20.2 4 Norte 11 Nordeste 0 -- -- 76
2020-10-18 00:00:00 20.7 5 Nordeste 10 Nordeste 0 -- -- 75
2020-10-17 23:00:00 21.3 5 Nordeste 12 Nordeste 0 -- -- 73
2020-10-17 22:00:00 21.2 6 Nordeste 12 Nordeste 0 -- -- 74
2020-10-17 21:00:00 21.1 6 Nordeste 17 Nordeste 0 -- -- 70
2020-10-17 20:00:00 21.7 9 Nordeste 19 Nordeste 0 -- -- 66
2020-10-17 19:00:00 22.1 10 Nordeste 17 Nordeste 0 -- -- 68
2020-10-17 18:00:00 22 6 Nordeste 21 Nordeste 0 -- -- 72
2020-10-17 17:00:00 21.8 9 Nordeste 18 Nordeste 0 -- -- 70
2020-10-17 16:00:00 22 11 Este 22 Este 0 -- -- 72
2020-10-17 15:00:00 22.2 13 Este 23 Nordeste 0 -- -- 71
2020-10-17 14:00:00 22.9 14 Este 23 Nordeste 0 -- -- 68
2020-10-17 13:00:00 24.1 12 Nordeste 24 Este 0 -- -- 66
2020-10-17 12:00:00 24 17 Este 27 Este 0 -- -- 68
2020-10-17 11:00:00 22.9 12 Nordeste 21 Nordeste 0 -- -- 67
2020-10-17 10:00:00 21.7 13 Nordeste 19 Nordeste 0 -- -- 70
2020-10-17 09:00:00 20.4 9 Nordeste 14 Nordeste 0 -- -- 75
2020-10-17 08:00:00 20.2 8 Nordeste 21 Nordeste 0 -- -- 75
2020-10-17 07:00:00 20.9 11 Nordeste 22 Nordeste 0 -- -- 73
2020-10-17 06:00:00 20.8 10 Nordeste 21 Nordeste 0 -- -- 73
2020-10-17 05:00:00 21 14 Nordeste 23 Nordeste 0 -- -- 73
2020-10-17 04:00:00 21 12 Nordeste 21 Nordeste 0 -- -- 76
2020-10-17 03:00:00 21.1 12 Nordeste 22 Nordeste 0 -- -- 74
2020-10-17 02:00:00 20.8 10 Nordeste 23 Nordeste 0 -- -- 76
2020-10-17 01:00:00 21.2 14 Nordeste 27 Nordeste 0 -- -- 74
2020-10-17 00:00:00 21.7 13 Nordeste 24 Nordeste 0 -- -- 70
2020-10-16 23:00:00 21.8 14 Nordeste 27 Nordeste 0 -- -- 71
2020-10-16 22:00:00 21.3 15 Nordeste 30 Nordeste 0 -- -- 75
2020-10-16 21:00:00 21.6 15 Nordeste 28 Nordeste 0 -- -- 73
2020-10-16 20:00:00 21.8 15 Nordeste 29 Nordeste 0 -- -- 74
2020-10-16 19:00:00 22.8 18 Nordeste 34 Nordeste 0 -- -- 68
2020-10-16 18:00:00 23.8 20 Nordeste 37 Nordeste 0 -- -- 64
2020-10-16 17:00:00 24.4 21 Nordeste 37 Nordeste 0 -- -- 62
2020-10-16 16:00:00 24.9 20 Este 36 Nordeste 0 -- -- 63
2020-10-16 15:00:00 24.8 21 Este 35 Nordeste 0 -- -- 62
2020-10-16 14:00:00 24.9 20 Nordeste 34 Este 0 -- -- 62
2020-10-16 13:00:00 24.6 21 Nordeste 37 Este 0 -- -- 61
2020-10-16 12:00:00 24.8 18 Nordeste 31 Este 0 -- -- 62
2020-10-16 11:00:00 23.6 20 Nordeste 31 Nordeste 0 -- -- 68
2020-10-16 10:00:00 22.4 14 Nordeste 24 Nordeste 0 -- -- 72
2020-10-16 09:00:00 21.2 9 Nordeste 23 Nordeste 0 -- -- 75
2020-10-16 08:00:00 21.2 11 Nordeste 23 Nordeste 0 -- -- 75
2020-10-16 07:00:00 20.8 13 Nordeste 25 Nordeste 0 -- -- 75
2020-10-16 06:00:00 21.3 14 Nordeste 29 Nordeste 0 -- -- 77
2020-10-16 05:00:00 21.4 15 Nordeste 27 Nordeste 0 -- -- 78
2020-10-16 04:00:00 21.6 15 Nordeste 26 Nordeste 0 -- -- 77
2020-10-16 03:00:00 21.3 15 Nordeste 27 Nordeste 0 -- -- 79
2020-10-16 02:00:00 21.5 14 Nordeste 28 Nordeste 0 -- -- 79
2020-10-16 01:00:00 21.4 18 Nordeste 31 Nordeste 0 -- -- 80
2020-10-16 00:00:00 21.4 14 Nordeste 31 Nordeste 0 -- -- 80
2020-10-15 23:00:00 21.5 18 Nordeste 36 Nordeste 0 -- -- 80
2020-10-15 22:00:00 21.6 15 Nordeste 34 Nordeste 0 -- -- 77
2020-10-15 21:00:00 21.5 20 Nordeste 33 Nordeste 0 -- -- 78
2020-10-15 20:00:00 21.7 14 Nordeste 30 Nordeste 0 -- -- 76
2020-10-15 19:00:00 22.4 14 Nordeste 27 Nordeste 0 -- -- 74
2020-10-15 18:00:00 23.3 15 Este 26 Este 0 -- -- 70
2020-10-15 17:00:00 23.9 17 Este 32 Nordeste 0 -- -- 69
2020-10-15 16:00:00 24.7 22 Nordeste 37 Nordeste 0 -- -- 67
2020-10-15 15:00:00 24.7 21 Nordeste 33 Nordeste 0 -- -- 65
2020-10-15 14:00:00 25.6 19 Nordeste 35 Nordeste 0 -- -- 60
2020-10-15 13:00:00 25.3 19 Nordeste 34 Este 0 -- -- 62
2020-10-15 12:00:00 24.5 21 Nordeste 36 Nordeste 0 -- -- 65
2020-10-15 11:00:00 24.1 23 Nordeste 41 Nordeste 0 -- -- 64
2020-10-15 10:00:00 23 18 Nordeste 34 Nordeste 0 -- -- 68
2020-10-15 09:00:00 21.2 13 Nordeste 27 Nordeste 0 -- -- 75
2020-10-15 08:00:00 20.2 9 Nordeste 22 Nordeste 0 -- -- 78
2020-10-15 07:00:00 20.2 12 Nordeste 22 Nordeste 0 -- -- 80
2020-10-15 06:00:00 20.3 13 Nordeste 29 Nordeste 0 -- -- 79
2020-10-15 05:00:00 20.3 15 Nordeste 29 Nordeste 0 -- -- 81
2020-10-15 04:00:00 20.3 16 Nordeste 30 Norte 0 -- -- 82
2020-10-15 03:00:00 20.1 13 Nordeste 26 Nordeste 0 -- -- 83
2020-10-15 02:00:00 20.5 12 Nordeste 28 Nordeste 0 -- -- 82
2020-10-15 01:00:00 21 14 Nordeste 33 Nordeste 0 -- -- 81
2020-10-15 00:00:00 21.3 21 Nordeste 43 Nordeste 0 -- -- 81
2020-10-14 23:00:00 21.4 22 Nordeste 42 Nordeste 0 -- -- 80
2020-10-14 22:00:00 21.6 21 Nordeste 40 Nordeste 0 -- -- 77
2020-10-14 21:00:00 21.9 21 Nordeste 37 Nordeste 0 -- -- 77
2020-10-14 20:00:00 22.4 18 Nordeste 33 Nordeste 0 -- -- 73
2020-10-14 19:00:00 23.6 16 Nordeste 33 Norte 0 -- -- 65
2020-10-14 18:00:00 24.9 21 Nordeste 37 Nordeste 0 -- -- 62
2020-10-14 17:00:00 26.1 19 Nordeste 37 Nordeste 0 -- -- 57
2020-10-14 16:00:00 26.2 21 Nordeste 35 Nordeste 0 -- -- 58
2020-10-14 15:00:00 26.1 18 Nordeste 30 Nordeste 0 -- -- 67
2020-10-14 14:00:00 25.7 18 Nordeste 32 Este 0 -- -- 68
2020-10-14 13:00:00 25.3 19 Nordeste 30 Este 0 -- -- 68
2020-10-14 12:00:00 25.7 16 Este 24 Este 0 -- -- 63
2020-10-14 11:00:00 24.7 12 Nordeste 20 Nordeste 0 -- -- 69
2020-10-14 10:00:00 22.5 14 Norte 21 Norte 0 -- -- 79
2020-10-14 09:00:00 21.4 8 Nordeste 12 Norte 0 -- -- 85
2020-10-14 08:00:00 20.5 5 Nordeste 17 Nordeste 0 -- -- 87
2020-10-14 07:00:00 20.9 10 Nordeste 22 Norte 0 -- -- 87
2020-10-14 06:00:00 20.9 10 Nordeste 29 Norte 0 -- -- 84
2020-10-14 05:00:00 21 13 Norte 25 Nordeste 0 -- -- 84
2020-10-14 04:00:00 21.6 18 Nordeste 29 Nordeste 0 -- -- 81
2020-10-14 03:00:00 22.1 13 Nordeste 27 Nordeste 0 -- -- 73
2020-10-14 02:00:00 22.4 16 Nordeste 26 Nordeste 0 -- -- 70
2020-10-14 01:00:00 22.2 15 Nordeste 31 Nordeste 0 -- -- 74
2020-10-14 00:00:00 22.3 19 Nordeste 33 Norte 0 -- -- 76
2020-10-13 23:00:00 22.6 17 Nordeste 37 Norte 0 -- -- 73
2020-10-13 22:00:00 23.1 18 Nordeste 32 Nordeste 0 -- -- 71
2020-10-13 21:00:00 23.7 15 Nordeste 41 Nordeste 0 -- -- 63
2020-10-13 20:00:00 23.7 17 Nordeste 36 Nordeste 0 -- -- 75
2020-10-13 19:00:00 24.5 18 Nordeste 32 Nordeste 0 -- -- 73
2020-10-13 18:00:00 27.3 14 Nordeste 34 Norte 0 -- -- 66
2020-10-13 17:00:00 26.9 17 Nordeste 24 Nordeste 0 -- -- 66
2020-10-13 16:00:00 25.1 13 Este 18 Nordeste 0 -- -- 68
2020-10-13 15:00:00 26.1 10 Este 20 Este 0 -- -- 58
2020-10-13 14:00:00 27.4 12 Sudeste 22 Este 0 -- -- 50
2020-10-13 13:00:00 29.1 13 Este 19 Este 0 -- -- 41
2020-10-13 12:00:00 30.9 8 Este 19 Sudeste 0 -- -- 34
2020-10-13 11:00:00 27.3 9 Sudeste 25 Sudeste 0 -- -- 62
2020-10-13 10:00:00 27.5 10 Norte 23 Norte 0 -- -- 46
2020-10-13 09:00:00 23.4 14 Norte 22 Nordeste 0 -- -- 72
2020-10-13 08:00:00 22.6 14 Norte 25 Norte 0 -- -- 74
2020-10-13 07:00:00 22.9 13 Nordeste 25 Norte 0 -- -- 69
2020-10-13 06:00:00 23.2 15 Nordeste 30 Nordeste 0 -- -- 66
2020-10-13 05:00:00 23.4 12 Nordeste 28 Nordeste 0 -- -- 61
2020-10-13 04:00:00 24.1 20 Nordeste 31 Nordeste 0 -- -- 58
2020-10-13 03:00:00 25 15 Nordeste 37 Nordeste 0 -- -- 49
2020-10-13 02:00:00 26.4 21 Nordeste 32 Nordeste 0 -- -- 42
2020-10-13 01:00:00 26.7 19 Nordeste 35 Nordeste 0 -- -- 42
2020-10-13 00:00:00 -- -- -- -- -- -- -- -- --
2020-10-12 23:00:00 25.8 23 Nordeste 36 Nordeste 0 -- -- 52
2020-10-12 22:00:00 25.6 20 Nordeste 39 Nordeste 0 -- -- 55
2020-10-12 21:00:00 25.3 17 Nordeste 30 Nordeste 0 -- -- 62
2020-10-12 20:00:00 25.3 17 Nordeste 29 Norte 0 -- -- 66
2020-10-12 19:00:00 27.6 16 Nordeste 30 Nordeste 0 -- -- 61
2020-10-12 18:00:00 29.3 16 Nordeste 28 Nordeste 0 -- -- 54
2020-10-12 17:00:00 32.1 16 Nordeste 26 Nordeste 0 -- -- 45
2020-10-12 16:00:00 32.8 15 Nordeste 27 Norte 0 -- -- 44
2020-10-12 15:00:00 32.1 18 Nordeste 27 Nordeste 0 -- -- 47
2020-10-12 14:00:00 33.3 17 Nordeste 27 Nordeste 0 -- -- 40
2020-10-12 13:00:00 32.1 17 Nordeste 27 Nordeste 0 -- -- 46
2020-10-12 12:00:00 32.6 16 Nordeste 27 Nordeste 0 -- -- 33
2020-10-12 11:00:00 30.2 16 Norte 27 Nordeste 0 -- -- 42
2020-10-12 10:00:00 28.5 17 Norte 31 Nordeste 0 -- -- 39
2020-10-12 09:00:00 23.4 17 Nordeste 30 Nordeste 0 -- -- 66
2020-10-12 08:00:00 22.5 18 Nordeste 33 Norte 0 -- -- 70
2020-10-12 07:00:00 22.7 17 Nordeste 35 Nordeste 0 -- -- 66
2020-10-12 06:00:00 22.9 20 Nordeste 39 Nordeste 0 -- -- 64
2020-10-12 05:00:00 23.1 21 Nordeste 40 Nordeste 0 -- -- 64
2020-10-12 04:00:00 23.5 26 Nordeste 42 Nordeste 0 -- -- 62
2020-10-12 03:00:00 -- -- -- -- -- -- -- -- --
2020-10-12 02:00:00 22.1 24 Nordeste 44 Nordeste 0 -- -- 81
2020-10-12 01:00:00 22.2 28 Nordeste 47 Nordeste 0 -- -- 80
2020-10-12 00:00:00 22.5 26 Nordeste 43 Norte 0 -- -- 77
2020-10-11 23:00:00 22.6 30 Nordeste 48 Nordeste 0 -- -- 78
2020-10-11 22:00:00 22.6 28 Nordeste 48 Norte 0 -- -- 78
2020-10-11 21:00:00 22.9 29 Nordeste 50 Nordeste 0 -- -- 76
2020-10-11 20:00:00 -- -- -- -- -- -- -- -- --
2020-10-11 19:00:00 -- -- -- -- -- -- -- -- --
2020-10-11 18:00:00 25.4 30 Nordeste 54 Nordeste 0 -- -- 67
2020-10-11 17:00:00 26.5 30 Nordeste 49 Nordeste 0 -- -- 64
2020-10-11 16:00:00 27.4 25 Nordeste 50 Nordeste 0 -- -- 61
2020-10-11 15:00:00 27.7 27 Nordeste 47 Norte 0 -- -- 59
2020-10-11 14:00:00 27.1 32 Nordeste 50 Nordeste 0 -- -- 61
2020-10-11 13:00:00 27.2 29 Nordeste 48 Nordeste 0 -- -- 62
2020-10-11 12:00:00 26.2 27 Nordeste 48 Nordeste 0 -- -- 64
2020-10-11 11:00:00 25.5 29 Nordeste 50 Nordeste 0 -- -- 63
2020-10-11 10:00:00 23.7 28 Nordeste 45 Norte 0 -- -- 70
2020-10-11 09:00:00 22.3 10 Norte 28 Norte 0 -- -- 73
2020-10-11 08:00:00 21.7 15 Norte 42 Norte 0 -- -- 74
2020-10-11 07:00:00 22 28 Norte 47 Norte 0 -- -- 72
2020-10-11 06:00:00 22.1 31 Norte 53 Norte 0 -- -- 71
2020-10-11 05:00:00 21.7 26 Nordeste 47 Nordeste 0 -- -- 74
2020-10-11 04:00:00 21.9 22 Nordeste 35 Norte 0 -- -- 73
2020-10-11 03:00:00 22 22 Norte 45 Nordeste 0 -- -- 74
2020-10-11 02:00:00 22.2 23 Nordeste 47 Norte 0 -- -- 71
2020-10-11 01:00:00 22 21 Nordeste 40 Nordeste 0 -- -- 74
2020-10-11 00:00:00 22.2 25 Norte 42 Nordeste 0 -- -- 72
2020-10-10 23:00:00 22 23 Nordeste 42 Nordeste 0 -- -- 76
2020-10-10 22:00:00 22.5 24 Nordeste 53 Nordeste 0 -- -- 74
2020-10-10 21:00:00 23 24 Nordeste 45 Nordeste 0 -- -- 67
2020-10-10 20:00:00 23 27 Nordeste 54 Nordeste 0 -- -- 71
2020-10-10 19:00:00 24.2 30 Nordeste 51 Nordeste 0 -- -- 63
2020-10-10 18:00:00 25.4 28 Nordeste 50 Nordeste 0 -- -- 61
2020-10-10 17:00:00 26.4 29 Nordeste 49 Nordeste 0 -- -- 59
2020-10-10 16:00:00 26.6 29 Nordeste 50 Nordeste 0 -- -- 59
2020-10-10 15:00:00 26.5 29 Nordeste 51 Nordeste 0 -- -- 59
2020-10-10 14:00:00 26.6 27 Nordeste 47 Nordeste 0 -- -- 59
2020-10-10 13:00:00 26.5 30 Nordeste 46 Nordeste 0 -- -- 60
2020-10-10 12:00:00 26.3 24 Nordeste 45 Nordeste 0 -- -- 59
2020-10-10 11:00:00 24.7 30 Nordeste 47 Nordeste 0 -- -- 65
2020-10-10 10:00:00 23.6 26 Nordeste 47 Nordeste 0 -- -- 67
2020-10-10 09:00:00 22.2 22 Nordeste 43 Nordeste 0 -- -- 76
2020-10-10 08:00:00 21.3 17 Nordeste 45 Nordeste 0 -- -- 78
2020-10-10 07:00:00 21.4 26 Nordeste 41 Nordeste 0 -- -- 77
2020-10-10 06:00:00 21.5 21 Nordeste 41 Norte 0 -- -- 78
2020-10-10 05:00:00 21.5 21 Nordeste 45 Nordeste 0 -- -- 79
2020-10-10 04:00:00 21.7 22 Nordeste 41 Nordeste 0 -- -- 77
2020-10-10 03:00:00 21.9 19 Nordeste 36 Norte 0 -- -- 78
2020-10-10 02:00:00 22.9 10 Norte 39 Norte 0 -- -- 69
2020-10-10 01:00:00 22.7 23 Norte 49 Nordeste 0 -- -- 67
2020-10-10 00:00:00 22.4 25 Norte 43 Norte 0 -- -- 73
2020-10-09 23:00:00 22.7 24 Norte 46 Nordeste 0 -- -- 75
2020-10-09 22:00:00 22.9 23 Nordeste 41 Norte 0 -- -- 75
2020-10-09 21:00:00 22.9 25 Norte 42 Nordeste 0 -- -- 73
2020-10-09 20:00:00 23.5 25 Norte 39 Norte 0 -- -- 74
2020-10-09 19:00:00 25.5 14 Norte 29 Norte 0 -- -- 66
2020-10-09 18:00:00 27.1 18 Norte 32 Norte 0 -- -- 65
2020-10-09 17:00:00 28 8 Sur 32 Norte 0 -- -- 62
2020-10-09 16:00:00 29.1 19 Nordeste 42 Norte 0 -- -- 54
2020-10-09 15:00:00 28.6 23 Nordeste 43 Norte 0 -- -- 55
2020-10-09 14:00:00 27.3 26 Nordeste 45 Norte 0 -- -- 59
2020-10-09 13:00:00 26.4 28 Nordeste 49 Norte 0 -- -- 63
2020-10-09 12:00:00 26.2 30 Nordeste 53 Nordeste 0 -- -- 63
2020-10-09 11:00:00 25.1 30 Nordeste 53 Norte 0 -- -- 68
2020-10-09 10:00:00 24.4 28 Nordeste 49 Nordeste 0 -- -- 69
2020-10-09 09:00:00 23.1 21 Nordeste 41 Norte 0 -- -- 76
2020-10-09 08:00:00 22.2 19 Norte 39 Nordeste 0 -- -- 78
2020-10-09 07:00:00 22.1 23 Nordeste 37 Nordeste 0 -- -- 78
2020-10-09 06:00:00 22.3 19 Nordeste 31 Nordeste 0 -- -- 78
2020-10-09 05:00:00 22.3 18 Norte 39 Nordeste 0 -- -- 79
2020-10-09 04:00:00 22.2 19 Nordeste 41 Nordeste 0 -- -- 79
2020-10-09 03:00:00 22.4 24 Nordeste 40 Norte 0 -- -- 77
2020-10-09 02:00:00 22.2 17 Nordeste 31 Norte 0 -- -- 78
2020-10-09 01:00:00 22.4 19 Norte 36 Norte 0 -- -- 76
2020-10-09 00:00:00 22.5 17 Norte 33 Nordeste 0 -- -- 79
2020-10-08 23:00:00 22.7 20 Nordeste 34 Nordeste 0 -- -- 79
2020-10-08 22:00:00 23.1 18 Nordeste 29 Nordeste 0 -- -- 78
2020-10-08 21:00:00 23.7 14 Nordeste 26 Norte 0 -- -- 77
2020-10-08 20:00:00 23.5 3 Sur 14 Sur 0 -- -- 81
2020-10-08 19:00:00 25.3 11 Sur 18 Sur 0 -- -- 72
2020-10-08 18:00:00 29.3 9 Nordeste 26 Nordeste 0 -- -- 54
2020-10-08 17:00:00 29.9 16 Nordeste 27 Nordeste 0 -- -- 46
2020-10-08 16:00:00 29.4 17 Nordeste 31 Este 0 -- -- 43
2020-10-08 15:00:00 28.6 22 Nordeste 37 Nordeste 0 -- -- 42
2020-10-08 14:00:00 29.2 19 Nordeste 33 Nordeste 0 -- -- 40
2020-10-08 13:00:00 28.9 21 Nordeste 35 Nordeste 0 -- -- 50
2020-10-08 12:00:00 28.4 19 Nordeste 38 Nordeste 0 -- -- 52
2020-10-08 11:00:00 27.3 20 Nordeste 36 Norte 0 -- -- 45
2020-10-08 10:00:00 24.8 19 Nordeste 36 Nordeste 0 -- -- 65
2020-10-08 09:00:00 22.5 22 Nordeste 35 Nordeste 0 -- -- 79
2020-10-08 08:00:00 21.1 15 Nordeste 25 Nordeste 0 -- -- 84
2020-10-08 07:00:00 21.1 11 Norte 17 Norte 0 -- -- 76
2020-10-08 06:00:00 21.6 11 Nordeste 22 Nordeste 0 -- -- 69
2020-10-08 05:00:00 21.8 14 Nordeste 25 Nordeste 0 -- -- 74
2020-10-08 04:00:00 21.7 15 Nordeste 28 Nordeste 0 -- -- 80
2020-10-08 03:00:00 21.8 17 Nordeste 29 Nordeste 0 -- -- 84
2020-10-08 02:00:00 21.8 13 Nordeste 24 Nordeste 0 -- -- 86
2020-10-08 01:00:00 22.1 13 Nordeste 22 Nordeste 0 -- -- 85
2020-10-08 00:00:00 22.2 12 Nordeste 23 Nordeste 0 -- -- 86
2020-10-07 23:00:00 22.4 12 Nordeste 21 Nordeste 0 -- -- 85
2020-10-07 22:00:00 22.6 11 Nordeste 19 Nordeste 0 -- -- 83
2020-10-07 21:00:00 22.9 12 Nordeste 22 Nordeste 0 -- -- 81
2020-10-07 20:00:00 23.5 12 Nordeste 23 Nordeste 0 -- -- 81
2020-10-07 19:00:00 24.4 13 Nordeste 21 Nordeste 0 -- -- 76
2020-10-07 18:00:00 26.6 13 Nordeste 26 Nordeste 0 -- -- 66
2020-10-07 17:00:00 26.5 15 Nordeste 26 Este 0 -- -- 67
2020-10-07 16:00:00 27 15 Nordeste 26 Este 0 -- -- 66
2020-10-07 15:00:00 26.8 15 Nordeste 26 Este 0 -- -- 66
2020-10-07 14:00:00 27.4 15 Nordeste 27 Este 0 -- -- 62
2020-10-07 13:00:00 26.6 15 Nordeste 26 Este 0 -- -- 68
2020-10-07 12:00:00 25.4 16 Este 26 Nordeste 0 -- -- 71
2020-10-07 11:00:00 25.2 15 Nordeste 26 Nordeste 0 -- -- 71
2020-10-07 10:00:00 23.7 15 Norte 29 Norte 0 -- -- 75
2020-10-07 09:00:00 21.7 4 Nordeste 9 Nordeste 0 -- -- 84
2020-10-07 08:00:00 19.9 6 Nordeste 10 Nordeste 0 -- -- 85
2020-10-07 07:00:00 20.2 6 Nordeste 14 Norte 0 -- -- 84
2020-10-07 06:00:00 20.5 8 Nordeste 15 Norte 0 -- -- 87
2020-10-07 05:00:00 20.7 10 Nordeste 19 Norte 0 -- -- 87
2020-10-07 04:00:00 21.2 12 Nordeste 22 Nordeste 0 -- -- 86
2020-10-07 03:00:00 21.1 13 Nordeste 27 Norte 0 -- -- 87
2020-10-07 02:00:00 21.4 17 Nordeste 31 Nordeste 0 -- -- 85
2020-10-07 01:00:00 21.6 17 Nordeste 34 Nordeste 0 -- -- 84
2020-10-07 00:00:00 21.8 18 Nordeste 40 Nordeste 0 -- -- 82
2020-10-06 23:00:00 21.6 22 Nordeste 41 Norte 0 -- -- 82
2020-10-06 22:00:00 21.7 22 Nordeste 37 Nordeste 0 -- -- 81
2020-10-06 21:00:00 21.9 18 Nordeste 40 Nordeste 0 -- -- 79
2020-10-06 20:00:00 22.2 20 Nordeste 40 Norte 0 -- -- 77
2020-10-06 19:00:00 22.8 19 Nordeste 35 Nordeste 0 -- -- 75
2020-10-06 18:00:00 23.2 20 Nordeste 39 Nordeste 0 -- -- 74
2020-10-06 17:00:00 23.8 21 Nordeste 36 Nordeste 0 -- -- 72
2020-10-06 16:00:00 23.3 18 Nordeste 32 Norte 0 -- -- 74
2020-10-06 15:00:00 23.4 16 Nordeste 35 Nordeste 0 -- -- 73
2020-10-06 14:00:00 24.4 20 Nordeste 34 Nordeste 0 -- -- 66
2020-10-06 13:00:00 24.7 18 Nordeste 30 Nordeste 0 -- -- 66
2020-10-06 12:00:00 23.3 20 Norte 37 Nordeste 0 -- -- 70
2020-10-06 11:00:00 23.2 21 Nordeste 39 Norte 0 -- -- 73
2020-10-06 10:00:00 22.2 23 Nordeste 37 Nordeste 0 -- -- 75
2020-10-06 09:00:00 21.7 21 Nordeste 44 Norte 0 -- -- 76
2020-10-06 08:00:00 21.4 22 Nordeste 40 Nordeste 0 -- -- 75
2020-10-06 07:00:00 21.1 21 Nordeste 34 Nordeste 0 -- -- 80
2020-10-06 06:00:00 21.3 16 Nordeste 35 Nordeste 0 -- -- 81
2020-10-06 05:00:00 21.8 20 Nordeste 36 Nordeste 0 -- -- 76
2020-10-06 04:00:00 21.7 18 Nordeste 35 Nordeste 0 -- -- 76
2020-10-06 03:00:00 21.8 19 Nordeste 31 Nordeste 0 -- -- 78
2020-10-06 02:00:00 21.8 16 Nordeste 28 Nordeste 0 -- -- 80
2020-10-06 01:00:00 22.1 15 Nordeste 30 Nordeste 0 -- -- 79
2020-10-06 00:00:00 22 14 Nordeste 26 Nordeste 0 -- -- 81
2020-10-05 23:00:00 22.1 17 Nordeste 30 Nordeste 0 -- -- 79
2020-10-05 22:00:00 22.1 18 Nordeste 30 Nordeste 0 -- -- 78
2020-10-05 21:00:00 22.3 16 Nordeste 27 Nordeste 0 -- -- 74
2020-10-05 20:00:00 22.3 16 Nordeste 30 Nordeste 0 -- -- 73
2020-10-05 19:00:00 23.1 17 Nordeste 30 Nordeste 0 -- -- 69
2020-10-05 18:00:00 24.5 19 Nordeste 37 Nordeste 0 -- -- 62
2020-10-05 17:00:00 24.8 24 Nordeste 48 Nordeste 0 -- -- 60
2020-10-05 16:00:00 26.4 26 Nordeste 49 Nordeste 0 -- -- 52
2020-10-05 15:00:00 25.8 32 Nordeste 45 Nordeste 0 -- -- 58
2020-10-05 14:00:00 26.1 27 Nordeste 44 Nordeste 0 -- -- 59
2020-10-05 13:00:00 25.6 30 Nordeste 47 Nordeste 0 -- -- 59
2020-10-05 12:00:00 25.6 27 Nordeste 43 Nordeste 0 -- -- 61
2020-10-05 11:00:00 24.3 30 Nordeste 44 Nordeste 0 -- -- 68
2020-10-05 10:00:00 23.6 25 Nordeste 42 Nordeste 0 -- -- 70
2020-10-05 09:00:00 22.2 24 Nordeste 40 Nordeste 0 -- -- 75
2020-10-05 08:00:00 21.1 18 Nordeste 32 Nordeste 0 -- -- 81
2020-10-05 07:00:00 21.2 18 Nordeste 32 Nordeste 0 -- -- 80
2020-10-05 06:00:00 21.5 17 Nordeste 35 Norte 0 -- -- 77
2020-10-05 05:00:00 22 18 Nordeste 33 Norte 0 -- -- 71
2020-10-05 04:00:00 21.6 16 Norte 32 Nordeste 0 -- -- 70
2020-10-05 03:00:00 21.8 24 Norte 35 Norte 0 -- -- 68
2020-10-05 02:00:00 21.5 21 Nordeste 35 Nordeste 0 -- -- 79
2020-10-05 01:00:00 21.1 22 Nordeste 35 Nordeste 0 -- -- 85
2020-10-05 00:00:00 22.6 18 Norte 37 Norte 0 -- -- 64
2020-10-04 23:00:00 21.7 21 Norte 42 Norte 0 -- -- 73
2020-10-04 22:00:00 22.4 28 Norte 41 Nordeste 0 -- -- 66
2020-10-04 21:00:00 22.3 28 Nordeste 57 Nordeste 0 -- -- 69
2020-10-04 20:00:00 22.4 33 Nordeste 52 Nordeste 0 -- -- 65
2020-10-04 19:00:00 23.8 36 Nordeste 58 Norte 0 -- -- 58
2020-10-04 18:00:00 24.6 34 Norte 54 Nordeste 0 -- -- 59
2020-10-04 17:00:00 25.1 33 Nordeste 54 Nordeste 0 -- -- 62
2020-10-04 16:00:00 25.7 31 Nordeste 52 Nordeste 0 -- -- 62
2020-10-04 15:00:00 25.6 26 Nordeste 45 Nordeste 0 -- -- 67
2020-10-04 14:00:00 24.5 29 Norte 42 Norte 0.8 -- -- 70
2020-10-04 13:00:00 24.1 19 Nordeste 36 Norte 0 -- -- 77
2020-10-04 12:00:00 21.1 19 Nordeste 36 Nordeste 1.6 -- -- 92
2020-10-04 11:00:00 21.6 23 Nordeste 42 Nordeste 0.8 -- -- 91
2020-10-04 10:00:00 24.5 5 Sur 14 Este 0 -- -- 71
2020-10-04 09:00:00 22.9 5 Oeste 14 Noroeste 0 -- -- 79
2020-10-04 08:00:00 22 10 Noroeste 26 Noroeste 0 -- -- 82
2020-10-04 07:00:00 21.8 16 Noroeste 26 Noroeste 0 -- -- 82
2020-10-04 06:00:00 21 6 Sur 19 Sudoeste 0 -- -- 85
2020-10-04 05:00:00 23 9 Noroeste 24 Nordeste 0 -- -- 71
2020-10-04 04:00:00 22.5 16 Norte 28 Norte 0 -- -- 74
2020-10-04 03:00:00 22 4 Nordeste 35 Norte 0 -- -- 75
2020-10-04 02:00:00 22.9 15 Nordeste 27 Nordeste 0 -- -- 69
2020-10-04 01:00:00 23 17 Nordeste 33 Nordeste 0 -- -- 64
2020-10-04 00:00:00 22.3 23 Nordeste 41 Norte 0 -- -- 72
2020-10-03 23:00:00 22.2 22 Nordeste 38 Nordeste 0 -- -- 73
2020-10-03 22:00:00 22.5 23 Nordeste 39 Nordeste 0 -- -- 76
2020-10-03 21:00:00 22.2 25 Nordeste 40 Nordeste 0 -- -- 79
2020-10-03 20:00:00 23.6 27 Nordeste 43 Nordeste 0 -- -- 67
2020-10-03 19:00:00 25.6 22 Nordeste 46 Norte 0 -- -- 60
2020-10-03 18:00:00 25.4 34 Norte 55 Nordeste 0 -- -- 63
2020-10-03 17:00:00 25.8 37 Nordeste 56 Nordeste 0 -- -- 64
2020-10-03 16:00:00 27.5 31 Nordeste 52 Nordeste 0 -- -- 58
2020-10-03 15:00:00 27.8 31 Norte 54 Nordeste 0 -- -- 53
2020-10-03 14:00:00 27.7 36 Nordeste 56 Norte 0 -- -- 53
2020-10-03 13:00:00 27.1 33 Nordeste 55 Norte 0 -- -- 55
2020-10-03 12:00:00 25.9 36 Norte 50 Norte 0 -- -- 59
2020-10-03 11:00:00 25.3 21 Nordeste 46 Norte 0 -- -- 60
2020-10-03 10:00:00 24.1 36 Norte 54 Norte 0 -- -- 59
2020-10-03 09:00:00 22.5 16 Norte 37 Nordeste 0 -- -- 69
2020-10-03 08:00:00 22.7 19 Norte 39 Norte 0 -- -- 59
2020-10-03 07:00:00 22.5 13 Norte 50 Norte 0 -- -- 63
2020-10-03 06:00:00 22.2 27 Norte 48 Norte 0 -- -- 67
2020-10-03 05:00:00 22.2 25 Nordeste 53 Norte 0 -- -- 69
2020-10-03 04:00:00 22.5 30 Norte 45 Norte 0 -- -- 65
2020-10-03 03:00:00 22.9 26 Norte 53 Norte 0 -- -- 58
2020-10-03 02:00:00 22.9 38 Norte 58 Nordeste 0 -- -- 58
2020-10-03 01:00:00 23 24 Norte 47 Norte 0 -- -- 61
2020-10-03 00:00:00 22.3 32 Norte 48 Nordeste 0 -- -- 69
2020-10-02 23:00:00 22.6 30 Norte 49 Nordeste 0 -- -- 71
2020-10-02 22:00:00 22.4 33 Nordeste 50 Nordeste 0 -- -- 74
2020-10-02 21:00:00 22.8 29 Nordeste 62 Nordeste 0 -- -- 70
2020-10-02 20:00:00 22.7 34 Nordeste 60 Norte 0 -- -- 73
2020-10-02 19:00:00 23.3 30 Norte 58 Norte 0 -- -- 68
2020-10-02 18:00:00 24.4 33 Norte 62 Norte 0 -- -- 60
2020-10-02 17:00:00 24.7 24 Norte 48 Nordeste 0 -- -- 64
2020-10-02 16:00:00 28 27 Norte 57 Norte 0 -- -- 52
2020-10-02 15:00:00 28 31 Nordeste 55 Nordeste 0 -- -- 45
2020-10-02 14:00:00 26.8 34 Nordeste 57 Nordeste 0 -- -- 51
2020-10-02 13:00:00 26.8 34 Nordeste 56 Norte 0 -- -- 48
2020-10-02 12:00:00 25.5 33 Norte 51 Nordeste 0 -- -- 50
2020-10-02 11:00:00 24.2 26 Norte 48 Nordeste 0 -- -- 52
2020-10-02 10:00:00 23.4 32 Norte 51 Norte 0 -- -- 56
2020-10-02 09:00:00 22.5 29 Norte 42 Nordeste 0 -- -- 64
2020-10-02 08:00:00 21.9 27 Norte 45 Norte 0 -- -- 60
2020-10-02 07:00:00 21.5 23 Norte 46 Nordeste 0 -- -- 68
2020-10-02 06:00:00 21.2 26 Nordeste 44 Norte 0 -- -- 73
2020-10-02 05:00:00 21.6 29 Norte 56 Norte 0 -- -- 69
2020-10-02 04:00:00 21.7 29 Nordeste 49 Norte 0 -- -- 72
2020-10-02 03:00:00 21.9 29 Nordeste 51 Nordeste 0 -- -- 72
2020-10-02 02:00:00 22.4 26 Nordeste 50 Nordeste 0 -- -- 63
2020-10-02 01:00:00 22.5 29 Nordeste 50 Norte 0 -- -- 63
2020-10-02 00:00:00 22.6 32 Norte 56 Nordeste 0 -- -- 71
2020-10-01 23:00:00 22.5 31 Nordeste 58 Nordeste 0 -- -- 68
2020-10-01 22:00:00 23 35 Norte 57 Nordeste 0 -- -- 62
2020-10-01 21:00:00 23 31 Nordeste 50 Nordeste 0 -- -- 61
2020-10-01 20:00:00 23.4 31 Nordeste 53 Norte 0 -- -- 60
2020-10-01 19:00:00 24.7 32 Nordeste 55 Nordeste 0 -- -- 56
2020-10-01 18:00:00 25.6 36 Nordeste 59 Norte 0 -- -- 54
2020-10-01 17:00:00 25.8 35 Nordeste 55 Nordeste 0 -- -- 58
2020-10-01 16:00:00 27.1 32 Nordeste 54 Nordeste 0 -- -- 51
2020-10-01 15:00:00 26.7 33 Nordeste 52 Nordeste 0 -- -- 54
2020-10-01 14:00:00 27.1 36 Nordeste 55 Nordeste 0 -- -- 52
2020-10-01 13:00:00 26.7 30 Nordeste 52 Nordeste 0 -- -- 51
2020-10-01 12:00:00 25.6 32 Nordeste 52 Nordeste 0 -- -- 53
2020-10-01 11:00:00 25.2 25 Nordeste 43 Nordeste 0 -- -- 62
2020-10-01 10:00:00 23.5 22 Nordeste 35 Nordeste 0 -- -- 64
2020-10-01 09:00:00 22.7 18 Nordeste 32 Nordeste 0 -- -- 69
2020-10-01 08:00:00 21.1 13 Nordeste 30 Nordeste 0 -- -- 72
2020-10-01 07:00:00 21.4 17 Nordeste 29 Nordeste 0 -- -- 72
2020-10-01 06:00:00 21.3 17 Nordeste 31 Nordeste 0 -- -- 69
2020-10-01 05:00:00 21.3 16 Nordeste 36 Nordeste 0 -- -- 69
2020-10-01 04:00:00 22.1 23 Norte 37 Norte 0 -- -- 64
2020-10-01 03:00:00 22.4 20 Nordeste 40 Nordeste 0 -- -- 62
2020-10-01 02:00:00 22.5 25 Nordeste 40 Nordeste 0 -- -- 62
2020-10-01 01:00:00 22.7 21 Norte 48 Norte 0 -- -- 62
2020-10-01 00:00:00 22.9 24 Norte 42 Norte 0 -- -- 59
2020-09-30 23:00:00 23.3 28 Norte 43 Nordeste 0 -- -- 57
2020-09-30 22:00:00 23 28 Norte 46 Norte 0 -- -- 59
2020-09-30 21:00:00 23.1 24 Nordeste 46 Norte 0 -- -- 56
2020-09-30 20:00:00 23.3 24 Nordeste 45 Nordeste 0 -- -- 63
2020-09-30 19:00:00 24.1 28 Nordeste 48 Nordeste 0 -- -- 67
2020-09-30 18:00:00 25.3 28 Nordeste 49 Norte 0 -- -- 60
2020-09-30 17:00:00 26 30 Nordeste 48 Nordeste 0 -- -- 60
2020-09-30 16:00:00 26.7 29 Nordeste 45 Nordeste 0 -- -- 56
2020-09-30 15:00:00 27 27 Nordeste 41 Nordeste 0 -- -- 50
2020-09-30 14:00:00 27 27 Nordeste 45 Nordeste 0 -- -- 49
2020-09-30 13:00:00 26.6 25 Nordeste 42 Nordeste 0 -- -- 54
2020-09-30 12:00:00 26.2 28 Nordeste 41 Nordeste 0 -- -- 54
2020-09-30 11:00:00 25.4 25 Nordeste 39 Nordeste 0 -- -- 54
2020-09-30 10:00:00 24.2 26 Nordeste 40 Nordeste 0 -- -- 57
2020-09-30 09:00:00 22.6 16 Nordeste 30 Norte 0 -- -- 64
2020-09-30 08:00:00 21.4 19 Nordeste 36 Norte 0 -- -- 68
2020-09-30 07:00:00 21.3 19 Nordeste 34 Norte 0 -- -- 70
2020-09-30 06:00:00 21.2 17 Nordeste 34 Nordeste 0 -- -- 71
2020-09-30 05:00:00 21.2 17 Nordeste 30 Nordeste 0 -- -- 72
2020-09-30 04:00:00 21.1 13 Nordeste 26 Nordeste 0 -- -- 72
2020-09-30 03:00:00 21.6 16 Nordeste 27 Nordeste 0 -- -- 70
2020-09-30 02:00:00 21.9 19 Nordeste 31 Nordeste 0 -- -- 68
2020-09-30 01:00:00 21.8 17 Nordeste 36 Nordeste 0 -- -- 68
2020-09-30 00:00:00 22.1 21 Nordeste 36 Norte 0 -- -- 68